Costa Serena — ICAZ — position and weather

sailwx.info

Track history (hours):
 
Tides and Currents Weather Stations Pressure Air Temp Water Temp Dewpoint Dewpoint Depression Visibility Wind Speed Wind Dir Waves Ship Positions

Costa Serena

Last reported at 2017-Mar-23 11:33 UTC. Time now 2017-Mar-23 12:16 UTC.
Position N 31°24' E 121°32'.

Length 290 m; draft 8.3 m.

Type: Ship. MMSI: 247187600.

Date/timePositionNaut miles runAvg speedWind from/ knotsBaromVisibWave heightAir tempDewpointWater temp
2017-Mar-23 11:33N 31°24' E 121°32'2 1.8
2017-Mar-23 10:31N 31°25' E 121°30'0 0.0
2017-Mar-23 09:31N 31°25' E 121°30'0 0.0
2017-Mar-23 08:33N 31°25' E 121°30'0 0.0
2017-Mar-23 07:33N 31°25' E 121°30'0 0.0
2017-Mar-23 06:32N 31°25' E 121°30'0 0.0
2017-Mar-23 05:32N 31°25' E 121°30'0 0.0
2017-Mar-23 04:25N 31°25' E 121°30'0 0.0
2017-Mar-23 03:28N 31°25' E 121°30'0 0.0
2017-Mar-23 02:31N 31°25' E 121°30'0 0.0
2017-Mar-23 01:33N 31°25' E 121°30'0 0.0
2017-Mar-23 00:33N 31°25' E 121°30'1 0.6
2017-Mar-22 23:33N 31°25' E 121°31'8 8.4
2017-Mar-22 22:33N 31°21' E 121°39'1111.5
2017-Mar-22 21:33N 31°16' E 121°52'1211.7
2017-Mar-22 20:33N 31°14' E 122°05'1111.4
2017-Mar-22 19:33N 31°08' E 122°16'9 8.7
2017-Mar-22 18:33N 31°07' E 122°26'  
2017-Mar-19 15:07N 31°05' E 122°58'1911.9
2017-Mar-19 13:33N 31°06' E 122°36'1211.4
2017-Mar-19 12:33N 31°06' E 122°23'1312.8
2017-Mar-19 11:33N 31°11' E 122°09'1414.0
2017-Mar-19 10:34N 31°16' E 121°54'1312.8
2017-Mar-19 09:33N 31°21' E 121°40'9 9.1
2017-Mar-19 08:31N 31°25' E 121°30'0 0.2
2017-Mar-19 07:33N 31°25' E 121°30'0 0.0
2017-Mar-19 06:27N 31°25' E 121°30'0 0.0
2017-Mar-19 05:33N 31°25' E 121°30'0 0.0
2017-Mar-19 04:32N 31°25' E 121°30'0 0.0
2017-Mar-19 03:32N 31°25' E 121°30'0 0.0
2017-Mar-19 02:31N 31°25' E 121°30'0 0.0
2017-Mar-19 01:31N 31°25' E 121°30'0 0.0
2017-Mar-19 00:33N 31°25' E 121°30'1 0.6
2017-Mar-18 23:33N 31°25' E 121°31'1010.1
2017-Mar-18 22:34N 31°20' E 121°41'1010.0
2017-Mar-18 21:34N 31°16' E 121°52'1010.1
2017-Mar-18 20:34N 31°14' E 122°04'10 9.9
2017-Mar-18 19:33N 31°09' E 122°14'2512.3
2017-Mar-18 17:33N 31°06' E 122°42'  
2017-Mar-14 13:03N 31°06' E 122°34'612.2
2017-Mar-14 12:33N 31°06' E 122°27'1111.2
2017-Mar-14 11:32N 31°08' E 122°14'1414.7
2017-Mar-14 10:34N 31°15' E 121°59'1514.8
2017-Mar-14 09:33N 31°19' E 121°43'1111.4
2017-Mar-14 08:33N 31°25' E 121°31'0 0.4
2017-Mar-14 07:31N 31°25' E 121°30'0 0.0
2017-Mar-14 06:31N 31°25' E 121°30'0 0.0
2017-Mar-14 05:31N 31°25' E 121°30'0 0.0
2017-Mar-14 04:33N 31°25' E 121°30'0 0.0
2017-Mar-14 03:33N 31°25' E 121°30'0 0.0
2017-Mar-14 02:32N 31°25' E 121°30'0 0.0
2017-Mar-14 01:32N 31°25' E 121°30'0 0.0
2017-Mar-14 00:31N 31°25' E 121°30'0 0.0
2017-Mar-13 23:28N 31°25' E 121°30'0 0.0
2017-Mar-13 22:33N 31°25' E 121°30'0 0.0
2017-Mar-13 21:32N 31°25' E 121°30'0 0.0
2017-Mar-13 20:32N 31°25' E 121°30'0 0.0
2017-Mar-13 19:31N 31°25' E 121°30'0 0.0
2017-Mar-13 18:33N 31°25' E 121°30'0 0.0
2017-Mar-13 17:31N 31°25' E 121°30'0 0.0
2017-Mar-13 16:33N 31°25' E 121°30'5 4.8
2017-Mar-13 15:34N 31°23' E 121°36'1110.9
2017-Mar-13 14:33N 31°18' E 121°47'1514.6
2017-Mar-13 13:34N 31°14' E 122°04'1212.1
2017-Mar-13 12:33N 31°08' E 122°16'  
Track history (hours):
 
Tides and Currents Weather Stations Pressure Air Temp Water Temp Dewpoint Dewpoint Depression Visibility Wind Speed Wind Dir Waves Ship Positions

Costa Serena

Last reported at 2017-Mar-23 11:33 UTC. Time now 2017-Mar-23 12:16 UTC.
Position N 31°24' E 121°32'.

Length 290 m; draft 8.3 m.

Type: Ship. MMSI: 247187600.

Date/timePositionNaut miles runAvg speedWind from/ knotsBaromVisibWave heightAir tempDewpointWater temp
2017-Mar-23 11:33N 31°24' E 121°32'2 1.8
2017-Mar-23 10:31N 31°25' E 121°30'0 0.0
2017-Mar-23 09:31N 31°25' E 121°30'0 0.0
2017-Mar-23 08:33N 31°25' E 121°30'0 0.0
2017-Mar-23 07:33N 31°25' E 121°30'0 0.0
2017-Mar-23 06:32N 31°25' E 121°30'0 0.0
2017-Mar-23 05:32N 31°25' E 121°30'0 0.0
2017-Mar-23 04:25N 31°25' E 121°30'0 0.0
2017-Mar-23 03:28N 31°25' E 121°30'0 0.0
2017-Mar-23 02:31N 31°25' E 121°30'0 0.0
2017-Mar-23 01:33N 31°25' E 121°30'0 0.0
2017-Mar-23 00:33N 31°25' E 121°30'1 0.6
2017-Mar-22 23:33N 31°25' E 121°31'8 8.4
2017-Mar-22 22:33N 31°21' E 121°39'1111.5
2017-Mar-22 21:33N 31°16' E 121°52'1211.7
2017-Mar-22 20:33N 31°14' E 122°05'1111.4
2017-Mar-22 19:33N 31°08' E 122°16'9 8.7
2017-Mar-22 18:33N 31°07' E 122°26'  
2017-Mar-19 15:07N 31°05' E 122°58'1911.9
2017-Mar-19 13:33N 31°06' E 122°36'1211.4
2017-Mar-19 12:33N 31°06' E 122°23'1312.8
2017-Mar-19 11:33N 31°11' E 122°09'1414.0
2017-Mar-19 10:34N 31°16' E 121°54'1312.8
2017-Mar-19 09:33N 31°21' E 121°40'9 9.1
2017-Mar-19 08:31N 31°25' E 121°30'0 0.2
2017-Mar-19 07:33N 31°25' E 121°30'0 0.0
2017-Mar-19 06:27N 31°25' E 121°30'0 0.0
2017-Mar-19 05:33N 31°25' E 121°30'0 0.0
2017-Mar-19 04:32N 31°25' E 121°30'0 0.0
2017-Mar-19 03:32N 31°25' E 121°30'0 0.0
2017-Mar-19 02:31N 31°25' E 121°30'0 0.0
2017-Mar-19 01:31N 31°25' E 121°30'0 0.0
2017-Mar-19 00:33N 31°25' E 121°30'1 0.6
2017-Mar-18 23:33N 31°25' E 121°31'1010.1
2017-Mar-18 22:34N 31°20' E 121°41'1010.0
2017-Mar-18 21:34N 31°16' E 121°52'1010.1
2017-Mar-18 20:34N 31°14' E 122°04'10 9.9
2017-Mar-18 19:33N 31°09' E 122°14'2512.3
2017-Mar-18 17:33N 31°06' E 122°42'  
2017-Mar-14 13:03N 31°06' E 122°34'612.2
2017-Mar-14 12:33N 31°06' E 122°27'1111.2
2017-Mar-14 11:32N 31°08' E 122°14'1414.7
2017-Mar-14 10:34N 31°15' E 121°59'1514.8
2017-Mar-14 09:33N 31°19' E 121°43'1111.4
2017-Mar-14 08:33N 31°25' E 121°31'0 0.4
2017-Mar-14 07:31N 31°25' E 121°30'0 0.0
2017-Mar-14 06:31N 31°25' E 121°30'0 0.0
2017-Mar-14 05:31N 31°25' E 121°30'0 0.0
2017-Mar-14 04:33N 31°25' E 121°30'0 0.0
2017-Mar-14 03:33N 31°25' E 121°30'0 0.0
2017-Mar-14 02:32N 31°25' E 121°30'0 0.0
2017-Mar-14 01:32N 31°25' E 121°30'0 0.0
2017-Mar-14 00:31N 31°25' E 121°30'0 0.0
2017-Mar-13 23:28N 31°25' E 121°30'0 0.0
2017-Mar-13 22:33N 31°25' E 121°30'0 0.0
2017-Mar-13 21:32N 31°25' E 121°30'0 0.0
2017-Mar-13 20:32N 31°25' E 121°30'0 0.0
2017-Mar-13 19:31N 31°25' E 121°30'0 0.0
2017-Mar-13 18:33N 31°25' E 121°30'0 0.0
2017-Mar-13 17:31N 31°25' E 121°30'0 0.0
2017-Mar-13 16:33N 31°25' E 121°30'5 4.8
2017-Mar-13 15:34N 31°23' E 121°36'1110.9
2017-Mar-13 14:33N 31°18' E 121°47'1514.6
2017-Mar-13 13:34N 31°14' E 122°04'1212.1
2017-Mar-13 12:33N 31°08' E 122°16'  

Dump ship's entire track history